Time;durP1;ratioP1;P1;durP2;ratioP2;P2;SDS_P1;SDS_P2;PMS_P1;PMS_P2;Temp;Humidity;BMP_temperature;BMP_pressure;BME280_temperature;BME280_humidity;BME280_pressure;Samples;Min_cycle;Max_cycle;Signal;HPM_P1;HPM_P2
2022/10/10 00:01:58;;;;;;;3.53;1.48;;;7.90;99.90;;;;;;4958626;28;20312;-53
2022/10/10 00:04:23;;;;;;;8.40;2.28;;;7.90;99.90;;;;;;4957744;28;20023;-54
2022/10/10 00:06:49;;;;;;;6.30;1.88;;;7.90;99.90;;;;;;4961320;28;20062;-55
2022/10/10 00:09:14;;;;;;;5.38;1.88;;;7.90;99.90;;;;;;4963678;28;20035;-51
2022/10/10 00:11:40;;;;;;;2.58;1.38;;;7.90;99.90;;;;;;4955978;28;20035;-52
2022/10/10 00:14:05;;;;;;;3.75;1.70;;;7.90;99.90;;;;;;4965052;28;20043;-52
2022/10/10 00:16:31;;;;;;;3.08;2.00;;;7.90;99.90;;;;;;4963309;28;20382;-57
2022/10/10 00:18:56;;;;;;;5.13;1.30;;;7.90;99.90;;;;;;4963251;28;20387;-51
2022/10/10 00:21:22;;;;;;;3.17;1.65;;;7.90;99.90;;;;;;4961586;28;20085;-52
2022/10/10 00:23:48;;;;;;;2.42;1.38;;;7.80;99.90;;;;;;4962697;28;20032;-54
2022/10/10 00:26:13;;;;;;;3.45;1.98;;;7.80;99.90;;;;;;4962142;28;20105;-54
2022/10/10 00:28:39;;;;;;;5.88;1.50;;;7.80;99.90;;;;;;4962701;28;20027;-51
2022/10/10 00:31:06;;;;;;;3.38;1.52;;;7.80;99.90;;;;;;4964567;28;20106;-51
2022/10/10 00:33:32;;;;;;;5.95;1.70;;;7.80;99.90;;;;;;4962679;28;20026;-54
2022/10/10 00:35:57;;;;;;;2.40;1.58;;;7.80;99.90;;;;;;4965022;28;20033;-51
2022/10/10 00:38:23;;;;;;;5.90;1.63;;;7.80;99.90;;;;;;4961205;28;20048;-51
2022/10/10 00:40:55;;;;;;;5.00;1.75;;;7.80;99.90;;;;;;4962948;28;20456;-52
2022/10/10 00:43:22;;;;;;;4.75;1.50;;;7.80;99.90;;;;;;4958219;28;20382;-51
2022/10/10 00:45:48;;;;;;;6.18;2.15;;;7.70;99.90;;;;;;4963965;28;20448;-54
2022/10/10 00:48:21;;;;;;;5.80;1.83;;;7.70;99.90;;;;;;4991551;28;20023;-57
2022/10/10 00:50:57;;;;;;;2.45;1.58;;;7.70;99.90;;;;;;4963549;28;20062;-55
2022/10/10 00:53:29;;;;;;;3.28;1.50;;;7.70;99.90;;;;;;4963029;28;20027;-53
2022/10/10 00:55:55;;;;;;;4.18;1.60;;;7.70;99.90;;;;;;4964165;28;20085;-55
2022/10/10 00:58:22;;;;;;;3.90;1.15;;;7.60;99.90;;;;;;4957996;28;20078;-51
2022/10/10 01:00:48;;;;;;;1.60;1.35;;;7.60;99.90;;;;;;4966553;28;20454;-54
2022/10/10 01:03:14;;;;;;;2.85;1.77;;;7.60;99.90;;;;;;4959362;28;20125;-51
2022/10/10 01:05:40;;;;;;;6.30;2.03;;;7.60;99.90;;;;;;4967955;28;20018;-51
2022/10/10 01:08:07;;;;;;;3.90;2.03;;;7.60;99.90;;;;;;5015519;23;20064;-48
2022/10/10 01:10:49;;;;;;;3.78;1.45;;;7.50;99.90;;;;;;4999141;28;20044;-52
2022/10/10 01:13:33;;;;;;;5.15;1.52;;;7.50;99.90;;;;;;5004935;28;20038;-49
2022/10/10 01:16:24;;;;;;;3.38;1.70;;;7.50;99.90;;;;;;4997851;28;20068;-48
2022/10/10 01:18:55;;;;;;;2.88;1.60;;;7.50;99.90;;;;;;4982111;28;20034;-48
2022/10/10 01:22:02;;;;;;;3.67;1.58;;;7.50;99.90;;;;;;4983646;28;20037;-47
2022/10/10 01:24:46;;;;;;;3.42;1.98;;;7.50;99.90;;;;;;4976671;28;20081;-46
2022/10/10 01:27:22;;;;;;;5.00;2.00;;;7.40;99.90;;;;;;4972864;28;20046;-46
2022/10/10 01:29:51;;;;;;;3.85;1.60;;;7.40;99.90;;;;;;4984620;28;20223;-51
2022/10/10 01:32:17;;;;;;;6.57;2.47;;;7.40;99.90;;;;;;4972696;28;20239;-46
2022/10/10 01:35:20;;;;;;;4.95;1.70;;;7.40;99.90;;;;;;4971538;28;20765;-47
2022/10/10 01:38:04;;;;;;;3.95;1.73;;;7.40;99.90;;;;;;4978716;28;20489;-46
2022/10/10 01:40:32;;;;;;;4.75;1.92;;;7.40;99.90;;;;;;4972551;28;20053;-46
2022/10/10 01:43:04;;;;;;;4.28;1.60;;;7.40;99.90;;;;;;4994082;28;20049;-49
2022/10/10 01:45:30;;;;;;;5.80;1.98;;;7.30;99.90;;;;;;4982310;28;20053;-46
2022/10/10 01:48:01;;;;;;;7.18;2.08;;;7.40;99.90;;;;;;4980680;28;20075;-46
2022/10/10 01:50:28;;;;;;;8.70;1.80;;;7.40;99.90;;;;;;4982542;28;20368;-46
2022/10/10 01:53:19;;;;;;;3.85;1.85;;;7.30;99.90;;;;;;4977829;28;20035;-47
2022/10/10 01:55:50;;;;;;;10.82;2.10;;;7.30;99.90;;;;;;4973720;28;20034;-48
2022/10/10 01:58:41;;;;;;;5.47;1.70;;;7.30;99.90;;;;;;4974681;28;20402;-49
2022/10/10 02:01:12;;;;;;;6.68;1.88;;;7.30;99.90;;;;;;4977189;28;20031;-46
2022/10/10 02:03:44;;;;;;;4.07;1.42;;;7.30;99.90;;;;;;4975767;28;20082;-48
2022/10/10 02:06:27;;;;;;;2.17;1.52;;;7.30;99.90;;;;;;4984720;28;20022;-49
2022/10/10 02:09:05;;;;;;;5.80;1.77;;;7.20;99.90;;;;;;4979369;28;20129;-46
2022/10/10 02:11:36;;;;;;;5.63;1.77;;;7.20;99.90;;;;;;4979819;28;20109;-46
2022/10/10 02:14:14;;;;;;;8.30;2.08;;;7.20;99.90;;;;;;4981022;28;20037;-46
2022/10/10 02:16:44;;;;;;;7.20;2.00;;;7.20;99.90;;;;;;4978860;28;20031;-46
2022/10/10 02:19:14;;;;;;;4.63;1.67;;;7.20;99.90;;;;;;4984722;28;20599;-47
2022/10/10 02:21:41;;;;;;;5.00;1.90;;;7.10;99.90;;;;;;4982047;28;20022;-47
2022/10/10 02:24:09;;;;;;;6.68;1.60;;;7.10;99.90;;;;;;4981086;28;20310;-47
2022/10/10 02:26:36;;;;;;;4.97;2.05;;;7.10;99.90;;;;;;4977346;28;20381;-47
2022/10/10 02:29:10;;;;;;;8.38;2.22;;;7.10;99.90;;;;;;4978093;28;20019;-47
2022/10/10 02:31:41;;;;;;;5.85;1.77;;;7.10;99.90;;;;;;4980347;28;20432;-48
2022/10/10 02:34:15;;;;;;;4.72;1.50;;;7.10;99.90;;;;;;4980622;28;20587;-48
2022/10/10 02:36:46;;;;;;;3.25;2.10;;;7.10;99.90;;;;;;4976356;28;20031;-50
2022/10/10 02:39:13;;;;;;;2.97;1.95;;;7.00;99.90;;;;;;4971129;28;20062;-50
2022/10/10 02:41:41;;;;;;;3.60;2.25;;;7.00;99.90;;;;;;4970564;28;20114;-50
2022/10/10 02:44:06;;;;;;;4.45;1.80;;;7.00;99.90;;;;;;4975787;28;20030;-47
2022/10/10 02:46:32;;;;;;;5.07;2.20;;;7.00;99.90;;;;;;4975542;28;20027;-49
2022/10/10 02:49:00;;;;;;;3.53;1.75;;;7.00;99.90;;;;;;4979270;28;20322;-47
2022/10/10 02:51:25;;;;;;;4.57;1.63;;;7.00;99.90;;;;;;4981660;28;20034;-47
2022/10/10 02:53:51;;;;;;;4.80;2.00;;;7.00;99.90;;;;;;4978521;28;20037;-49
2022/10/10 02:56:17;;;;;;;4.65;2.17;;;6.90;99.90;;;;;;4979662;28;20041;-49
2022/10/10 02:58:42;;;;;;;3.55;1.83;;;6.90;99.90;;;;;;4974006;28;20389;-48
2022/10/10 03:01:09;;;;;;;4.82;2.22;;;6.90;99.90;;;;;;4995503;28;20105;-51
2022/10/10 03:03:35;;;;;;;8.35;2.25;;;6.90;99.90;;;;;;4984068;28;20397;-46
2022/10/10 03:06:01;;;;;;;3.13;1.63;;;6.90;99.90;;;;;;4978839;28;20153;-48
2022/10/10 03:08:27;;;;;;;3.17;1.63;;;6.90;99.90;;;;;;4977316;28;20026;-48
2022/10/10 03:10:59;;;;;;;4.63;1.92;;;6.80;99.90;;;;;;4973115;28;20053;-46
2022/10/10 03:13:24;;;;;;;2.17;1.70;;;6.80;99.90;;;;;;4973872;28;20019;-48
2022/10/10 03:15:50;;;;;;;3.85;1.90;;;6.80;99.90;;;;;;4979553;28;20398;-46
2022/10/10 03:18:16;;;;;;;5.82;2.33;;;6.80;99.90;;;;;;4977426;28;20026;-46
2022/10/10 03:20:44;;;;;;;2.47;1.92;;;6.80;99.90;;;;;;4981223;28;20045;-47
2022/10/10 03:23:11;;;;;;;4.88;1.85;;;6.80;99.90;;;;;;4978714;28;20030;-47
2022/10/10 03:25:40;;;;;;;8.43;1.75;;;6.80;99.90;;;;;;4978180;28;20416;-49
2022/10/10 03:28:06;;;;;;;3.40;1.85;;;6.80;99.90;;;;;;4975347;28;20118;-47
2022/10/10 03:30:32;;;;;;;4.82;2.08;;;6.70;99.90;;;;;;4980231;28;20167;-48
2022/10/10 03:32:57;;;;;;;2.13;1.63;;;6.70;99.90;;;;;;4978653;28;20245;-48
2022/10/10 03:35:23;;;;;;;8.60;2.55;;;6.70;99.90;;;;;;4981557;28;20019;-48
2022/10/10 03:37:48;;;;;;;3.95;2.17;;;6.70;99.90;;;;;;4977692;28;20506;-47
2022/10/10 03:40:14;;;;;;;3.35;1.70;;;6.70;99.90;;;;;;4967850;28;20045;-46
2022/10/10 03:42:39;;;;;;;3.13;2.45;;;6.70;99.90;;;;;;4978798;28;20089;-48
2022/10/10 03:45:05;;;;;;;4.35;2.33;;;6.70;99.90;;;;;;4995110;28;20019;-47
2022/10/10 03:47:31;;;;;;;3.88;2.35;;;6.60;99.90;;;;;;4978757;28;20556;-48
2022/10/10 03:49:57;;;;;;;3.60;2.42;;;6.60;99.90;;;;;;4980802;28;20028;-49
2022/10/10 03:52:22;;;;;;;4.75;2.20;;;6.60;99.90;;;;;;4980035;28;20034;-46
2022/10/10 03:54:48;;;;;;;3.65;2.55;;;6.60;99.90;;;;;;4976736;28;20030;-47
2022/10/10 03:57:13;;;;;;;6.15;2.30;;;6.60;99.90;;;;;;4995841;28;20042;-46
2022/10/10 03:59:39;;;;;;;4.60;1.90;;;6.60;99.90;;;;;;4980717;28;20050;-46
2022/10/10 04:02:04;;;;;;;3.60;2.05;;;6.60;99.90;;;;;;4979466;28;20037;-46
2022/10/10 04:04:30;;;;;;;3.83;2.20;;;6.60;99.90;;;;;;4980913;28;20045;-50
2022/10/10 04:06:56;;;;;;;6.40;2.40;;;6.60;99.90;;;;;;4982483;28;20039;-46
2022/10/10 04:09:22;;;;;;;4.70;2.28;;;6.50;99.90;;;;;;4981736;28;20033;-47
2022/10/10 04:11:47;;;;;;;4.88;2.75;;;6.50;99.90;;;;;;4975259;28;20031;-49
2022/10/10 04:14:13;;;;;;;6.30;2.78;;;6.50;99.90;;;;;;4982297;28;20049;-49
2022/10/10 04:16:38;;;;;;;10.05;2.60;;;6.50;99.90;;;;;;4980128;28;20076;-49
2022/10/10 04:19:04;;;;;;;5.28;2.22;;;6.50;99.90;;;;;;4980541;28;20043;-46
2022/10/10 04:21:29;;;;;;;7.57;2.83;;;6.50;99.90;;;;;;4984294;28;20715;-47
2022/10/10 04:23:55;;;;;;;5.53;2.72;;;6.50;99.90;;;;;;4981476;28;20035;-47
2022/10/10 04:26:20;;;;;;;6.40;3.00;;;6.40;99.90;;;;;;4979096;28;20440;-50
2022/10/10 04:28:46;;;;;;;4.05;2.35;;;6.40;99.90;;;;;;4980282;28;20393;-47
2022/10/10 04:31:12;;;;;;;2.72;1.83;;;6.40;99.90;;;;;;4983415;28;20029;-48
2022/10/10 04:33:37;;;;;;;7.25;2.90;;;6.40;99.90;;;;;;4980708;28;20377;-48
2022/10/10 04:36:03;;;;;;;2.50;2.30;;;6.40;99.90;;;;;;4979201;28;20027;-50
2022/10/10 04:38:28;;;;;;;6.53;2.85;;;6.40;99.90;;;;;;4983804;28;20471;-46
2022/10/10 04:40:54;;;;;;;4.10;2.60;;;6.40;99.90;;;;;;4982175;28;20374;-48
2022/10/10 04:43:20;;;;;;;6.00;2.45;;;6.40;99.90;;;;;;4983802;28;20022;-46
2022/10/10 04:45:45;;;;;;;4.47;2.55;;;6.40;99.90;;;;;;4982760;28;20042;-47
2022/10/10 04:48:11;;;;;;;5.13;3.33;;;6.40;99.90;;;;;;4976102;28;20033;-49
2022/10/10 04:50:37;;;;;;;4.93;2.40;;;6.40;99.90;;;;;;4984227;28;20068;-47
2022/10/10 04:53:03;;;;;;;2.67;2.47;;;6.40;99.90;;;;;;4974208;28;20027;-47
2022/10/10 04:55:28;;;;;;;4.28;2.38;;;6.40;99.90;;;;;;4983551;28;20400;-48
2022/10/10 04:57:54;;;;;;;6.15;2.65;;;6.40;99.90;;;;;;4976171;28;20030;-47
2022/10/10 05:00:19;;;;;;;3.60;2.83;;;6.40;99.90;;;;;;4983261;28;20026;-46
2022/10/10 05:02:45;;;;;;;5.85;2.75;;;6.40;99.90;;;;;;4976307;28;20027;-46
2022/10/10 05:05:11;;;;;;;2.38;2.17;;;6.30;99.90;;;;;;4983417;28;20011;-49
2022/10/10 05:07:36;;;;;;;6.25;2.63;;;6.30;99.90;;;;;;4977508;28;20413;-46
2022/10/10 05:10:02;;;;;;;7.65;2.88;;;6.30;99.90;;;;;;4976912;28;20107;-49
2022/10/10 05:12:28;;;;;;;9.77;2.42;;;6.30;99.90;;;;;;4972002;28;20066;-50
2022/10/10 05:14:53;;;;;;;6.05;2.50;;;6.30;99.90;;;;;;4983668;28;20035;-46
2022/10/10 05:17:19;;;;;;;8.02;2.30;;;6.30;99.90;;;;;;4983186;28;20037;-48
2022/10/10 05:19:45;;;;;;;7.20;3.42;;;6.30;99.90;;;;;;4983908;28;20464;-46
2022/10/10 05:22:10;;;;;;;4.13;2.80;;;6.30;99.90;;;;;;4982591;28;20113;-51
2022/10/10 05:24:36;;;;;;;4.15;2.67;;;6.30;99.90;;;;;;4977505;28;20386;-46
2022/10/10 05:27:01;;;;;;;5.72;3.03;;;6.30;99.90;;;;;;4982703;28;20027;-47
2022/10/10 05:29:27;;;;;;;6.80;3.15;;;6.30;99.90;;;;;;4982497;28;20022;-46
2022/10/10 05:31:53;;;;;;;10.05;3.00;;;6.30;99.90;;;;;;4982462;28;20034;-46
2022/10/10 05:34:18;;;;;;;6.35;3.03;;;6.30;99.90;;;;;;4982826;28;20504;-51
2022/10/10 05:36:44;;;;;;;4.75;2.58;;;6.20;99.90;;;;;;4997951;28;20030;-52
2022/10/10 05:39:09;;;;;;;5.40;2.75;;;6.20;99.90;;;;;;4983228;28;20104;-50
2022/10/10 05:41:35;;;;;;;5.65;2.95;;;6.20;99.90;;;;;;4982686;28;20023;-50
2022/10/10 05:44:01;;;;;;;4.60;3.10;;;6.20;99.90;;;;;;4980762;28;20094;-49
2022/10/10 05:46:26;;;;;;;5.75;3.17;;;6.20;99.90;;;;;;4979235;28;20507;-50
2022/10/10 05:48:53;;;;;;;5.15;2.92;;;6.20;99.90;;;;;;4986256;28;20465;-51
2022/10/10 05:51:19;;;;;;;8.43;3.00;;;6.20;99.90;;;;;;4979103;28;20195;-50
2022/10/10 05:53:45;;;;;;;5.15;3.40;;;6.20;99.90;;;;;;4979608;28;20019;-46
2022/10/10 05:56:11;;;;;;;9.20;3.63;;;6.20;99.90;;;;;;4984780;28;20034;-49
2022/10/10 05:58:37;;;;;;;4.05;2.67;;;6.20;99.90;;;;;;4978542;28;20027;-50
2022/10/10 06:01:05;;;;;;;8.95;3.45;;;6.20;99.90;;;;;;4978773;28;20564;-47
2022/10/10 06:03:31;;;;;;;5.53;3.30;;;6.20;99.90;;;;;;4981686;28;20127;-49
2022/10/10 06:05:57;;;;;;;9.48;3.60;;;6.20;99.90;;;;;;4979327;28;20281;-49
2022/10/10 06:08:24;;;;;;;6.65;3.45;;;6.20;99.90;;;;;;4977223;28;20029;-48
2022/10/10 06:10:50;;;;;;;9.25;3.53;;;6.20;99.90;;;;;;4977538;28;20027;-50
2022/10/10 06:13:17;;;;;;;11.18;3.55;;;6.20;99.90;;;;;;4982751;28;20023;-47
2022/10/10 06:15:42;;;;;;;4.38;3.75;;;6.20;99.90;;;;;;4977487;28;20055;-46
2022/10/10 06:18:09;;;;;;;3.72;2.92;;;6.20;99.90;;;;;;4984436;28;20033;-48
2022/10/10 06:20:36;;;;;;;3.53;3.13;;;6.20;99.90;;;;;;4978935;28;20362;-52
2022/10/10 06:23:03;;;;;;;3.97;3.03;;;6.20;99.90;;;;;;4979343;28;20105;-49
2022/10/10 06:25:29;;;;;;;7.07;4.00;;;6.20;99.90;;;;;;4981780;28;20065;-48
2022/10/10 06:27:55;;;;;;;5.55;3.78;;;6.20;99.90;;;;;;4979409;28;20050;-48
2022/10/10 06:30:21;;;;;;;6.65;3.47;;;6.20;99.90;;;;;;4981751;28;20030;-47
2022/10/10 06:32:46;;;;;;;6.45;3.22;;;6.20;99.90;;;;;;4978627;28;20023;-49
2022/10/10 06:35:12;;;;;;;5.28;3.25;;;6.30;99.90;;;;;;4988058;28;20026;-47
2022/10/10 06:37:37;;;;;;;4.53;3.67;;;6.30;99.90;;;;;;4979178;28;20093;-49
2022/10/10 06:40:03;;;;;;;10.50;3.50;;;6.30;99.90;;;;;;4987947;28;20019;-48
2022/10/10 06:42:29;;;;;;;8.10;4.40;;;6.30;99.90;;;;;;4979317;28;20034;-47
2022/10/10 06:44:54;;;;;;;11.88;3.58;;;6.30;99.90;;;;;;4972158;28;20069;-48
2022/10/10 06:47:20;;;;;;;5.35;3.25;;;6.40;99.90;;;;;;4979126;28;20149;-49
2022/10/10 06:49:45;;;;;;;8.77;3.63;;;6.40;99.90;;;;;;4978265;28;20106;-49
2022/10/10 06:52:11;;;;;;;7.85;3.88;;;6.40;99.90;;;;;;4981580;28;20030;-51
2022/10/10 06:54:36;;;;;;;5.72;3.53;;;6.40;99.90;;;;;;4976323;28;20038;-50
2022/10/10 06:57:02;;;;;;;10.02;3.63;;;6.50;99.90;;;;;;4973840;28;20409;-47
2022/10/10 06:59:28;;;;;;;6.53;3.80;;;6.50;99.90;;;;;;4971209;28;20048;-49
2022/10/10 07:01:53;;;;;;;8.05;3.90;;;6.50;99.90;;;;;;4975385;28;20034;-49
2022/10/10 07:04:19;;;;;;;5.57;3.60;;;6.60;99.90;;;;;;4979889;28;20050;-47
2022/10/10 07:06:44;;;;;;;6.32;3.60;;;6.60;99.90;;;;;;4980892;28;20066;-48
2022/10/10 07:09:10;;;;;;;8.35;3.70;;;6.60;99.90;;;;;;5056447;23;20056;-51
2022/10/10 07:11:35;;;;;;;8.65;4.22;;;6.70;99.90;;;;;;5019138;28;20030;-53
2022/10/10 07:14:01;;;;;;;4.72;3.88;;;6.70;99.90;;;;;;5018873;28;20030;-53
2022/10/10 07:16:27;;;;;;;3.85;3.33;;;6.80;99.90;;;;;;5021205;28;20104;-51
2022/10/10 07:18:52;;;;;;;3.92;3.03;;;6.80;99.90;;;;;;5014937;28;20514;-49
2022/10/10 07:21:18;;;;;;;4.72;4.00;;;6.90;99.90;;;;;;5002978;28;20026;-50
2022/10/10 07:23:43;;;;;;;6.60;3.58;;;7.00;99.90;;;;;;5006641;28;20427;-54
2022/10/10 07:26:12;;;;;;;7.00;3.25;;;7.00;99.90;;;;;;5003707;28;20026;-50
2022/10/10 07:28:39;;;;;;;7.57;3.38;;;7.10;99.90;;;;;;5000715;28;20018;-58
2022/10/10 07:31:07;;;;;;;7.38;3.75;;;7.20;99.90;;;;;;5003887;28;20400;-54
2022/10/10 07:33:36;;;;;;;4.45;3.53;;;7.20;99.90;;;;;;5002366;28;20368;-52
2022/10/10 07:36:03;;;;;;;8.25;3.95;;;7.30;99.90;;;;;;5004362;28;20101;-51
2022/10/10 07:38:28;;;;;;;7.07;3.30;;;7.40;99.90;;;;;;5003050;28;20029;-50
2022/10/10 07:40:54;;;;;;;4.80;2.88;;;7.40;99.90;;;;;;5005438;28;20018;-51
2022/10/10 07:43:20;;;;;;;4.97;3.22;;;7.50;99.90;;;;;;5003797;28;20080;-50
2022/10/10 07:45:45;;;;;;;6.70;3.35;;;7.60;99.90;;;;;;4999471;28;20022;-53
2022/10/10 07:48:11;;;;;;;7.50;2.85;;;7.60;99.90;;;;;;5000138;28;20018;-56
2022/10/10 07:50:41;;;;;;;5.18;3.33;;;7.70;99.90;;;;;;5004781;28;20026;-51
2022/10/10 07:53:07;;;;;;;3.53;2.80;;;7.80;99.90;;;;;;5002128;28;20022;-50
2022/10/10 07:55:33;;;;;;;3.58;2.60;;;7.90;99.90;;;;;;5005247;28;20030;-56
2022/10/10 07:58:01;;;;;;;6.70;3.13;;;8.00;99.90;;;;;;5005778;28;20472;-53
2022/10/10 08:00:27;;;;;;;4.65;2.55;;;8.10;99.90;;;;;;5005232;28;20105;-53
2022/10/10 08:02:53;;;;;;;9.35;3.47;;;8.20;99.90;;;;;;5008917;28;20117;-56
2022/10/10 08:05:18;;;;;;;6.57;2.47;;;8.30;99.90;;;;;;5005964;28;20014;-50
2022/10/10 08:07:44;;;;;;;6.25;3.20;;;8.40;99.90;;;;;;5010148;28;20022;-52
2022/10/10 08:10:09;;;;;;;7.47;3.63;;;8.50;99.90;;;;;;5004567;28;20411;-53
2022/10/10 08:12:35;;;;;;;7.35;3.80;;;8.60;99.90;;;;;;5005050;28;20026;-51
2022/10/10 08:15:01;;;;;;;5.97;2.53;;;8.80;99.90;;;;;;5007556;28;20130;-51
2022/10/10 08:17:26;;;;;;;5.88;2.70;;;8.90;99.90;;;;;;4984336;28;20025;-50
2022/10/10 08:19:52;;;;;;;7.43;2.72;;;9.10;99.90;;;;;;5005980;28;20164;-51
2022/10/10 08:22:18;;;;;;;6.20;2.78;;;9.20;99.90;;;;;;5005669;28;20092;-51
2022/10/10 08:24:43;;;;;;;5.32;2.60;;;9.30;99.90;;;;;;5008490;28;20049;-50
2022/10/10 08:27:09;;;;;;;6.35;2.70;;;9.40;99.90;;;;;;5019825;28;20476;-52
2022/10/10 08:29:34;;;;;;;6.20;2.42;;;9.60;99.90;;;;;;5005191;28;20543;-51
2022/10/10 08:32:00;;;;;;;5.25;2.70;;;9.60;99.90;;;;;;5007240;28;20508;-52
2022/10/10 08:34:25;;;;;;;4.82;2.65;;;9.80;99.90;;;;;;5004676;28;20407;-51
2022/10/10 08:36:51;;;;;;;2.30;2.10;;;9.80;99.90;;;;;;5008714;28;20041;-50
2022/10/10 08:39:17;;;;;;;3.50;2.50;;;10.00;99.90;;;;;;5005052;28;20026;-51
2022/10/10 08:41:58;;;;;;;2.70;2.40;;;10.00;99.90;;;;;;5009154;28;20033;-53
2022/10/10 08:44:25;;;;;;;4.38;2.33;;;10.20;99.90;;;;;;4999893;28;20388;-52
2022/10/10 08:46:55;;;;;;;6.05;3.00;;;10.20;99.90;;;;;;5000815;28;20044;-52
2022/10/10 08:49:43;;;;;;;6.55;3.28;;;10.30;99.90;;;;;;5010226;28;20030;-53
2022/10/10 08:52:37;;;;;;;3.55;2.40;;;10.40;99.90;;;;;;5005262;28;20422;-51
2022/10/10 08:55:06;;;;;;;3.05;2.50;;;10.40;99.90;;;;;;5001709;28;20081;-51
2022/10/10 08:57:42;;;;;;;5.75;2.67;;;10.50;99.90;;;;;;5007495;28;20084;-51
2022/10/10 09:00:15;;;;;;;3.95;2.67;;;10.60;99.90;;;;;;5003255;28;20038;-52
2022/10/10 09:02:47;;;;;;;5.20;2.50;;;10.60;99.90;;;;;;5007749;28;20451;-55
2022/10/10 09:05:16;;;;;;;3.53;1.92;;;10.70;99.90;;;;;;5004680;28;20673;-52
2022/10/10 09:08:10;;;;;;;7.25;2.53;;;10.70;99.90;;;;;;5008753;28;20014;-50
2022/10/10 09:10:44;;;;;;;6.57;2.17;;;10.80;99.90;;;;;;4992069;28;20092;-52
2022/10/10 09:13:42;;;;;;;6.03;2.40;;;10.90;99.90;;;;;;5001466;28;20034;-54
2022/10/10 09:16:33;;;;;;;3.80;2.10;;;10.90;99.90;;;;;;5007326;28;20029;-52
2022/10/10 09:19:22;;;;;;;5.35;2.30;;;11.00;99.90;;;;;;5004191;28;20121;-50
2022/10/10 09:21:53;;;;;;;2.90;2.50;;;11.10;99.90;;;;;;5004495;28;20022;-52
2022/10/10 09:24:21;;;;;;;4.50;3.00;;;11.20;99.90;;;;;;5001012;28;20014;-51
2022/10/10 09:26:51;;;;;;;5.20;2.35;;;11.20;99.90;;;;;;5005641;28;20014;-52
2022/10/10 09:29:42;;;;;;;4.53;2.10;;;11.30;99.90;;;;;;5007731;28;20394;-52
2022/10/10 09:32:18;;;;;;;6.95;2.65;;;11.30;99.90;;;;;;5004385;28;20041;-54
2022/10/10 09:34:46;;;;;;;;;;;11.40;99.90;;;;;;5006202;28;20034;-53
2022/10/10 09:37:19;;;;;;;2.33;1.77;;;11.50;99.90;;;;;;5005892;28;19952;-55
2022/10/10 09:40:24;;;;;;;3.25;2.25;;;11.50;99.90;;;;;;5006428;28;20097;-52
2022/10/10 09:42:50;;;;;;;4.93;2.53;;;11.60;99.90;;;;;;4961039;28;20037;-52
2022/10/10 09:45:34;;;;;;;3.28;2.30;;;11.60;99.90;;;;;;5003682;28;20022;-52
2022/10/10 09:47:59;;;;;;;4.28;2.45;;;11.70;99.90;;;;;;4999672;28;20026;-51
2022/10/10 09:50:25;;;;;;;5.95;2.95;;;11.70;99.90;;;;;;5006455;28;20380;-52
2022/10/10 09:52:52;;;;;;;4.35;2.35;;;11.80;99.90;;;;;;5004582;28;20029;-51
2022/10/10 09:55:29;;;;;;;4.88;1.92;;;11.90;99.90;;;;;;4995088;28;20145;-53
2022/10/10 09:58:03;;;;;;;5.60;2.17;;;12.00;99.90;;;;;;4998091;28;20105;-50
2022/10/10 10:00:35;;;;;;;5.15;2.58;;;12.00;99.90;;;;;;4995878;28;20448;-52
2022/10/10 10:03:21;;;;;;;3.03;2.45;;;12.10;99.90;;;;;;5006739;28;20472;-55
2022/10/10 10:06:00;;;;;;;3.50;2.10;;;12.20;99.90;;;;;;5002919;28;20388;-55
2022/10/10 10:08:32;;;;;;;4.35;2.53;;;12.20;99.90;;;;;;4992560;28;20516;-52
2022/10/10 10:10:58;;;;;;;3.88;2.30;;;12.30;99.90;;;;;;5000045;28;20492;-50
2022/10/10 10:13:33;;;;;;;5.18;2.78;;;12.30;99.90;;;;;;4992707;28;20030;-51
2022/10/10 10:16:10;;;;;;;3.78;2.08;;;12.40;99.90;;;;;;4998562;28;20489;-51
2022/10/10 10:18:41;;;;;;;4.03;2.63;;;12.40;99.90;;;;;;5006622;28;20235;-50
2022/10/10 10:21:07;;;;;;;3.45;2.25;;;12.40;99.90;;;;;;5002502;28;20022;-51
2022/10/10 10:23:53;;;;;;;4.85;2.35;;;12.40;99.90;;;;;;5000100;28;20029;-50
2022/10/10 10:26:46;;;;;;;4.47;2.22;;;12.50;99.90;;;;;;4995662;28;20551;-51
2022/10/10 10:29:27;;;;;;;5.00;2.63;;;12.50;99.90;;;;;;4989718;28;20392;-52
2022/10/10 10:32:02;;;;;;;3.60;1.88;;;12.60;99.90;;;;;;5000685;28;20057;-50
2022/10/10 10:34:53;;;;;;;4.70;2.33;;;12.60;99.90;;;;;;4995807;28;20073;-53
2022/10/10 10:37:48;;;;;;;6.03;2.30;;;12.70;99.90;;;;;;4992354;28;20064;-51
2022/10/10 10:40:26;;;;;;;7.82;2.28;;;12.70;99.90;;;;;;4990961;28;20049;-51
2022/10/10 10:43:11;;;;;;;2.92;2.22;;;12.90;99.90;;;;;;4998547;28;20033;-54
2022/10/10 10:45:49;;;;;;;4.95;2.42;;;13.00;99.90;;;;;;4995232;28;20520;-52
2022/10/10 10:48:34;;;;;;;2.92;1.92;;;13.10;99.90;;;;;;5001140;28;20029;-52
2022/10/10 10:51:13;;;;;;;4.15;2.65;;;13.10;99.90;;;;;;4998809;28;20033;-52
2022/10/10 10:53:43;;;;;;;4.57;2.60;;;13.20;99.90;;;;;;4993937;28;20589;-50
2022/10/10 10:56:29;;;;;;;6.43;2.70;;;13.20;99.90;;;;;;4998749;28;20046;-50
2022/10/10 10:59:22;;;;;;;4.70;2.53;;;13.30;99.90;;;;;;4997070;28;20404;-53
2022/10/10 11:02:02;;;;;;;5.60;2.50;;;13.30;99.90;;;;;;5004156;28;20037;-51
2022/10/10 11:04:39;;;;;;;7.35;2.58;;;13.30;99.90;;;;;;4995355;28;20030;-50
2022/10/10 11:07:18;;;;;;;6.63;2.58;;;13.40;99.90;;;;;;5005828;28;20045;-51
2022/10/10 11:10:27;;;;;;;8.18;2.72;;;13.50;99.90;;;;;;5001639;28;20442;-51
2022/10/10 11:13:07;;;;;;;5.55;2.88;;;13.60;99.90;;;;;;4990321;28;20085;-53
2022/10/10 11:15:51;;;;;;;5.78;2.90;;;13.70;99.90;;;;;;5000044;28;20034;-53
2022/10/10 11:18:28;;;;;;;5.00;2.78;;;13.70;99.90;;;;;;4996380;28;20025;-51
2022/10/10 11:21:05;;;;;;;3.67;2.20;;;13.80;99.90;;;;;;4993906;28;20125;-56
2022/10/10 11:23:44;;;;;;;5.72;2.38;;;13.90;99.90;;;;;;4998198;28;20077;-53
2022/10/10 11:26:30;;;;;;;5.30;2.63;;;13.90;99.90;;;;;;5001632;28;20033;-53
2022/10/10 11:29:10;;;;;;;6.00;2.28;;;13.90;99.90;;;;;;4994379;28;20489;-52
2022/10/10 11:32:05;;;;;;;3.38;2.33;;;14.00;99.90;;;;;;4994477;28;20168;-54
2022/10/10 11:34:39;;;;;;;5.97;1.83;;;14.00;99.90;;;;;;4987232;28;20049;-51
2022/10/10 11:37:12;;;;;;;7.72;2.38;;;14.10;99.90;;;;;;5004175;28;20084;-51
2022/10/10 11:39:51;;;;;;;5.68;2.03;;;14.10;99.90;;;;;;5004168;28;20025;-54
2022/10/10 11:42:26;;;;;;;4.38;2.13;;;14.20;99.90;;;;;;4995095;28;20162;-52
2022/10/10 11:45:27;;;;;;;4.28;2.35;;;14.20;99.90;;;;;;4998381;28;20027;-53
2022/10/10 11:48:11;;;;;;;3.45;1.90;;;14.30;99.90;;;;;;4977962;28;20163;-51
2022/10/10 11:50:42;;;;;;;7.28;1.80;;;14.40;99.90;;;;;;5006551;28;20100;-51
2022/10/10 11:53:37;;;;;;;2.40;1.85;;;14.50;99.90;;;;;;5000870;28;20026;-51
2022/10/10 11:56:14;;;;;;;5.25;1.75;;;14.60;99.90;;;;;;5005653;28;20022;-51
2022/10/10 11:58:43;;;;;;;12.68;2.50;;;14.60;99.90;;;;;;4994294;28;20023;-50
2022/10/10 12:01:18;;;;;;;6.53;2.03;;;14.70;99.90;;;;;;5006990;28;20025;-55
2022/10/10 12:03:43;;;;;;;6.67;2.20;;;14.70;99.90;;;;;;4999784;28;20489;-51
2022/10/10 12:06:21;;;;;;;3.65;2.22;;;14.80;99.90;;;;;;5008237;28;20020;-52
2022/10/10 12:09:00;;;;;;;4.00;2.10;;;14.90;99.90;;;;;;5000724;28;20476;-51
2022/10/10 12:11:52;;;;;;;4.13;2.00;;;15.00;99.90;;;;;;4994509;28;20033;-52
2022/10/10 12:14:21;;;;;;;4.32;1.98;;;15.00;99.90;;;;;;4981178;28;20443;-51
2022/10/10 12:16:47;;;;;;;3.08;1.88;;;15.10;99.90;;;;;;5000915;28;20022;-49
2022/10/10 12:19:19;;;;;;;3.53;2.22;;;15.20;99.90;;;;;;5005062;28;20026;-55
2022/10/10 12:22:07;;;;;;;2.80;1.90;;;15.30;99.90;;;;;;5002422;28;20180;-53
2022/10/10 12:24:56;;;;;;;2.97;1.77;;;15.40;99.90;;;;;;4995238;28;20018;-52
2022/10/10 12:27:40;;;;;;;3.10;2.28;;;15.40;99.90;;;;;;4996064;28;20507;-50
2022/10/10 12:30:08;;;;;;;2.33;2.13;;;15.50;99.90;;;;;;5005659;28;20033;-50
2022/10/10 12:32:41;;;;;;;4.07;2.30;;;15.50;99.90;;;;;;4990066;28;20030;-53
2022/10/10 12:35:30;;;;;;;3.72;2.25;;;15.50;99.90;;;;;;4998534;28;20481;-54
2022/10/10 12:38:25;;;;;;;4.63;2.42;;;15.40;99.90;;;;;;4994575;28;20062;-57
2022/10/10 12:40:56;;;;;;;4.70;2.25;;;15.40;99.90;;;;;;5002059;28;20477;-51
2022/10/10 12:43:42;;;;;;;7.60;2.30;;;15.40;99.90;;;;;;5006729;28;20022;-50
2022/10/10 12:46:15;;;;;;;2.75;2.03;;;15.40;99.90;;;;;;4996360;28;20038;-51
2022/10/10 12:48:41;;;;;;;2.53;1.98;;;15.50;99.90;;;;;;5003073;28;20078;-52
2022/10/10 12:51:18;;;;;;;9.25;2.88;;;15.50;99.90;;;;;;5009594;28;20460;-50
2022/10/10 12:53:53;;;;;;;3.05;1.98;;;15.60;99.90;;;;;;4995103;28;20456;-54
2022/10/10 12:56:32;;;;;;;6.57;2.58;;;15.60;99.90;;;;;;4999329;28;20029;-51
2022/10/10 12:58:59;;;;;;;3.55;2.30;;;15.70;99.90;;;;;;4994468;28;20041;-53
2022/10/10 13:01:33;;;;;;;8.00;2.28;;;15.70;99.90;;;;;;5002237;28;20041;-50
2022/10/10 13:03:59;;;;;;;4.93;2.85;;;15.80;99.90;;;;;;4997782;28;20030;-51
2022/10/10 13:06:41;;;;;;;5.70;2.33;;;15.80;99.90;;;;;;5007309;28;20025;-55
2022/10/10 13:09:17;;;;;;;3.88;1.80;;;15.80;99.90;;;;;;5020194;23;20114;-49
2022/10/10 13:11:50;;;;;;;4.10;2.33;;;15.70;99.90;;;;;;4971102;28;20053;-52
2022/10/10 13:14:15;;;;;;;4.10;2.35;;;15.70;99.90;;;;;;4956981;28;20608;-47